createdAt,value
2019-03-04T00:03:29.339Z,91.30
2019-03-04T00:08:33.073Z,91.40
2019-03-04T00:13:37.138Z,91.50
2019-03-04T00:18:41.144Z,91.60
2019-03-04T00:23:44.862Z,91.40
2019-03-04T00:28:48.931Z,91.20
2019-03-04T00:33:52.620Z,91.00
2019-03-04T00:38:56.330Z,91.00
2019-03-04T00:43:59.989Z,91.10
2019-03-04T00:49:03.727Z,91.20
2019-03-04T00:54:07.693Z,91.30
2019-03-04T00:59:11.628Z,91.70
2019-03-04T01:04:15.324Z,92.00
2019-03-04T01:09:19.087Z,92.10
2019-03-04T01:14:23.060Z,92.30
2019-03-04T01:19:26.734Z,92.40
2019-03-04T01:24:30.779Z,92.50
2019-03-04T01:29:34.684Z,92.60
2019-03-04T01:34:38.374Z,92.40
2019-03-04T01:39:42.118Z,92.80
2019-03-04T01:44:45.787Z,93.10
2019-03-04T01:49:49.460Z,93.30
2019-03-04T01:54:53.398Z,93.40
2019-03-04T01:59:57.474Z,93.10
2019-03-04T02:05:01.429Z,92.80
2019-03-04T02:10:06.076Z,92.70
2019-03-04T02:15:11.573Z,92.90
2019-03-04T02:20:16.510Z,92.90
2019-03-04T02:25:23.706Z,92.90
2019-03-04T02:30:28.091Z,92.80
2019-03-04T02:35:31.783Z,92.50
2019-03-04T02:40:35.433Z,92.90
2019-03-04T02:45:39.353Z,91.80
2019-03-04T02:50:43.027Z,92.10
2019-03-04T02:55:46.979Z,91.70
2019-03-04T03:00:50.654Z,92.10
2019-03-04T03:05:54.415Z,92.50
2019-03-04T03:10:58.531Z,92.60
2019-03-04T03:16:02.289Z,92.90
2019-03-04T03:21:06.248Z,93.40
2019-03-04T03:26:10.145Z,93.70
2019-03-04T03:31:14.048Z,94.10
2019-03-04T03:36:17.915Z,94.60
2019-03-04T03:41:21.844Z,93.90
2019-03-04T03:46:25.507Z,94.00
2019-03-04T03:51:29.637Z,94.20
2019-03-04T03:56:33.320Z,93.90
2019-03-04T04:01:36.983Z,94.00
2019-03-04T04:06:40.971Z,94.20
2019-03-04T04:11:44.627Z,94.30
2019-03-04T04:16:48.300Z,94.50
2019-03-04T04:21:52.008Z,94.60
2019-03-04T04:26:55.686Z,94.80
2019-03-04T04:31:59.436Z,94.90
2019-03-04T04:37:03.179Z,94.90
2019-03-04T04:42:06.851Z,94.80
2019-03-04T04:47:10.848Z,94.60
2019-03-04T04:52:14.893Z,94.50
2019-03-04T04:57:18.544Z,94.20
2019-03-04T05:02:22.202Z,93.90
2019-03-04T05:07:26.117Z,93.60
2019-03-04T05:12:29.802Z,93.30
2019-03-04T05:17:33.482Z,93.10
2019-03-04T05:22:37.403Z,92.80
2019-03-04T05:27:41.057Z,92.70
2019-03-04T05:32:44.729Z,92.60
2019-03-04T05:37:48.423Z,92.60
2019-03-04T05:42:52.083Z,92.50
2019-03-04T05:47:56.190Z,92.30
2019-03-04T05:53:00.115Z,92.60
2019-03-04T05:58:04.136Z,92.10
2019-03-04T06:03:08.501Z,91.70
2019-03-04T06:08:12.193Z,90.70
2019-03-04T06:13:16.246Z,89.50
2019-03-04T06:18:19.983Z,87.60
2019-03-04T06:23:23.973Z,86.70
2019-03-04T06:28:27.718Z,85.50
2019-03-04T06:33:31.664Z,85.30
2019-03-04T06:38:35.359Z,84.40
2019-03-04T06:43:39.062Z,83.70
2019-03-04T06:48:42.763Z,83.10
2019-03-04T06:54:08.842Z,82.90
2019-03-04T06:59:37.242Z,82.50
2019-03-04T07:05:07.262Z,82.30
2019-03-04T07:10:11.032Z,82.00
2019-03-04T07:15:14.776Z,81.80
2019-03-04T07:20:18.680Z,80.40
2019-03-04T07:25:22.671Z,79.50
2019-03-04T07:30:26.340Z,80.00
2019-03-04T07:35:30.028Z,80.50
2019-03-04T07:40:33.761Z,79.90
2019-03-04T07:45:37.501Z,80.20
2019-03-04T07:50:41.324Z,79.60
2019-03-04T07:55:45.380Z,80.70
2019-03-04T08:00:49.075Z,83.10
2019-03-04T08:05:52.800Z,86.70
2019-03-04T08:11:24.630Z,86.50
2019-03-04T08:16:28.401Z,85.30
2019-03-04T08:21:32.477Z,85.00
2019-03-04T08:26:36.768Z,84.30
2019-03-04T08:31:40.873Z,84.20
2019-03-04T08:36:44.610Z,83.90
2019-03-04T08:41:48.342Z,84.00
2019-03-04T08:46:52.128Z,84.20
2019-03-04T08:51:55.916Z,84.00
2019-03-04T08:57:03.871Z,84.10
2019-03-04T09:02:06.213Z,83.70
2019-03-04T09:07:10.282Z,84.00
2019-03-04T09:12:13.942Z,84.50
2019-03-04T09:17:17.699Z,84.50
2019-03-04T09:22:21.626Z,85.10
2019-03-04T09:27:25.297Z,85.40
2019-03-04T09:32:28.983Z,84.00
2019-03-04T09:37:32.671Z,82.30
2019-03-04T09:42:36.376Z,80.90
2019-03-04T09:47:40.195Z,80.80
2019-03-04T09:52:44.068Z,79.10
2019-03-04T09:57:47.882Z,76.10
2019-03-04T10:02:51.974Z,75.20
2019-03-04T10:08:40.746Z,75.20
2019-03-04T10:14:00.440Z,71.30
2019-03-04T10:19:51.248Z,50.30
2019-03-04T10:25:20.198Z,43.60
2019-03-04T10:30:37.430Z,50.90
2019-03-04T10:35:46.823Z,54.30
2019-03-04T10:41:14.256Z,50.70
2019-03-04T10:46:25.082Z,51.30
2019-03-04T10:51:29.849Z,51.30
2019-03-04T10:56:33.605Z,53.60
2019-03-04T11:01:37.297Z,51.60
2019-03-04T11:06:41.142Z,52.60
2019-03-04T11:11:44.823Z,49.30
2019-03-04T11:16:48.518Z,50.20
2019-03-04T11:21:52.294Z,51.40
2019-03-04T11:26:56.374Z,52.50
2019-03-04T11:32:00.103Z,52.20
2019-03-04T11:37:03.906Z,51.60
2019-03-04T11:42:07.573Z,46.50
2019-03-04T11:47:11.258Z,42.60
2019-03-04T11:52:15.580Z,38.10
2019-03-04T11:57:19.596Z,33.50
2019-03-04T12:02:25.391Z,33.00
2019-03-04T12:07:29.194Z,34.40
2019-03-04T12:12:33.122Z,36.40
2019-03-04T12:17:36.882Z,33.70
2019-03-04T12:22:40.882Z,34.90
2019-03-04T12:27:44.818Z,35.50
2019-03-04T12:32:48.597Z,32.30
2019-03-04T12:37:53.570Z,30.10
2019-03-04T12:42:57.291Z,31.50
2019-03-04T12:48:01.112Z,38.70
2019-03-04T12:53:05.055Z,41.50
2019-03-04T12:58:08.734Z,43.00
2019-03-04T13:03:23.285Z,44.10
2019-03-04T13:08:26.968Z,44.70
2019-03-04T13:13:33.781Z,44.40
2019-03-04T13:18:37.560Z,43.90
2019-03-04T13:23:41.689Z,42.70
2019-03-04T13:28:45.499Z,45.90
2019-03-04T13:33:49.177Z,47.60
2019-03-04T13:38:52.893Z,48.40
2019-03-04T13:43:56.643Z,49.70
2019-03-04T13:49:00.507Z,49.80
2019-03-04T13:54:04.799Z,49.30
2019-03-04T13:59:08.596Z,52.80
2019-03-04T14:04:12.570Z,58.10
2019-03-04T14:09:19.223Z,59.80
2019-03-04T14:14:23.451Z,56.10
2019-03-04T14:19:27.527Z,53.60
2019-03-04T14:25:08.857Z,54.70
2019-03-04T14:30:15.138Z,55.20
2019-03-04T14:35:21.896Z,55.30
2019-03-04T14:40:33.123Z,56.20
2019-03-04T14:45:37.233Z,56.20
2019-03-04T14:50:41.135Z,55.70
2019-03-04T14:55:45.156Z,56.70
2019-03-04T15:00:50.414Z,55.60
2019-03-04T15:06:06.531Z,53.90
2019-03-04T15:11:05.853Z,51.70
2019-03-04T15:16:10.137Z,51.70
2019-03-04T15:21:14.313Z,51.60
2019-03-04T15:26:18.644Z,50.80
2019-03-04T15:31:22.575Z,51.10
2019-03-04T15:36:27.940Z,51.20
2019-03-04T15:41:31.616Z,51.00
2019-03-04T15:46:35.745Z,51.20
2019-03-04T15:51:39.562Z,51.20
2019-03-04T15:56:43.825Z,52.20
2019-03-04T16:01:47.716Z,51.50
2019-03-04T16:06:54.117Z,50.50
2019-03-04T16:11:59.459Z,48.50
2019-03-04T16:17:03.347Z,48.10
2019-03-04T16:22:10.153Z,49.20
2019-03-04T16:27:14.945Z,50.80
2019-03-04T16:32:19.270Z,52.50
2019-03-04T16:37:23.140Z,53.10
2019-03-04T16:42:26.897Z,53.50
2019-03-04T16:47:30.695Z,53.60
2019-03-04T16:52:34.663Z,54.90
2019-03-04T16:57:38.630Z,54.00
2019-03-04T17:02:42.459Z,61.80
2019-03-04T17:07:46.288Z,87.60
2019-03-04T17:12:50.054Z,88.10
2019-03-04T17:17:56.924Z,86.70
2019-03-04T17:23:00.822Z,88.20
2019-03-04T17:28:04.664Z,87.80
2019-03-04T17:33:08.571Z,85.30
2019-03-04T17:38:12.241Z,85.70
2019-03-04T17:43:15.936Z,84.40
2019-03-04T17:48:19.865Z,85.40
2019-03-04T17:53:23.830Z,84.50
2019-03-04T17:58:27.801Z,84.40
2019-03-04T18:03:31.929Z,83.00
2019-03-04T18:08:35.645Z,84.40
2019-03-04T18:13:39.415Z,84.00
2019-03-04T18:18:43.357Z,84.40
2019-03-04T18:23:47.029Z,90.70
2019-03-04T18:29:40.242Z,96.50
2019-03-04T18:35:25.200Z,99.10
2019-03-04T18:40:57.473Z,99.40
2019-03-04T18:46:43.455Z,98.90
2019-03-04T18:51:47.183Z,98.60
2019-03-04T18:56:50.950Z,98.70
2019-03-04T19:01:55.818Z,97.60
2019-03-04T19:06:59.924Z,97.70
2019-03-04T19:12:03.706Z,96.80
2019-03-04T19:17:07.955Z,96.60
2019-03-04T19:22:11.643Z,95.60
2019-03-04T19:27:15.799Z,96.20
2019-03-04T19:32:19.559Z,96.00
2019-03-04T19:37:23.495Z,96.10
2019-03-04T19:42:27.163Z,96.10
2019-03-04T19:47:31.087Z,96.70
2019-03-04T19:52:34.787Z,96.50
2019-03-04T19:57:38.911Z,96.20
2019-03-04T20:02:42.665Z,96.40
2019-03-04T20:07:46.485Z,96.20
2019-03-04T20:12:50.262Z,96.30
2019-03-04T20:17:56.392Z,96.40
2019-03-04T20:22:59.709Z,95.90
2019-03-04T20:28:03.905Z,95.60
2019-03-04T20:33:07.587Z,95.40
2019-03-04T20:38:11.366Z,95.10
2019-03-04T20:43:15.030Z,94.90
2019-03-04T20:48:18.691Z,94.50
2019-03-04T20:53:22.657Z,94.70
2019-03-04T20:58:26.360Z,94.40
2019-03-04T21:03:34.801Z,93.70
2019-03-04T21:08:36.322Z,93.50
2019-03-04T21:13:40.080Z,93.20
2019-03-04T21:18:44.085Z,93.50
2019-03-04T21:23:48.618Z,93.60
2019-03-04T21:29:04.172Z,93.70
2019-03-04T21:34:41.805Z,92.90
2019-03-04T21:39:49.115Z,93.80
2019-03-04T21:45:38.471Z,93.40
2019-03-04T21:51:10.529Z,93.00
2019-03-04T21:56:29.239Z,92.80
2019-03-04T22:01:38.514Z,93.10
2019-03-04T22:06:42.680Z,92.60
2019-03-04T22:11:46.677Z,92.90
2019-03-04T22:16:50.504Z,93.10
2019-03-04T22:21:54.294Z,92.90
2019-03-04T22:26:58.062Z,93.20
2019-03-04T22:32:01.736Z,92.70
2019-03-04T22:37:05.473Z,93.40
2019-03-04T22:42:09.129Z,92.50
2019-03-04T22:47:12.869Z,92.60
2019-03-04T22:52:16.570Z,92.60
2019-03-04T22:57:20.676Z,92.60
2019-03-04T23:02:26.368Z,92.10
2019-03-04T23:07:47.616Z,92.30
2019-03-04T23:12:55.146Z,92.20
2019-03-04T23:17:58.893Z,91.80
2019-03-04T23:23:02.801Z,91.80
2019-03-04T23:28:06.709Z,92.20
2019-03-04T23:33:10.375Z,92.00
2019-03-04T23:38:14.397Z,92.20
2019-03-04T23:43:18.126Z,92.00
2019-03-04T23:48:22.073Z,92.40
2019-03-04T23:53:26.065Z,93.00
2019-03-04T23:58:29.817Z,92.70
